Mattoon, IL (61938)

11:26 PM CDT on April 27, 2015 (GMT -0500)
Coles County Memorial | | Change Station
CLOSE
Current Station
Airport
Location: Mattoon,
Elevation: 722 ft
Nearby Weather Stations

Elev 722 ft 39.47 °N, 88.27 °W | Updated 33 minutes ago

Clear
Clear
45 °F
Feels Like 42 °F
N
6
Wind Variable Wind from North

Today
High -- | Low -- °F
--% Chance of Precip.
Yesterday
High -- | Low -- °F
Precip. -- in
5:59 AM 7:43 PM
Waxing Gibbous, 70% visible
Pressure 30.09 in
Visibility 10.0 miles
Clouds Clear
Windchill 42 °F
Dew Point 36 °F
Humidity 71%
Rainfall 0.00 in
Snow Depth Not available.
UV 0 out of 12
Pollen 9.60 out of 12
Air Quality Not available.
Flu Activity Regional
METAR KMTO 280353Z AUTO 36005KT 10SM CLR 07/02 A3009 RMK AO2 SLP190 T00720022

More Conditions Fewer Conditions

Pressure 30.09 in
Visibility 10.0 miles
Clouds Clear
Windchill 42 °F
Dew Point 36 °F
Humidity 71%
Rainfall 0.00 in
Snow Depth Not available.
UV 0 out of 12
Pollen 9.60 out of 12
Air Quality Not available.
Flu Activity Regional
METAR KMTO 280353Z AUTO 36005KT 10SM CLR 07/02 A3009 RMK AO2 SLP190 T00720022

More Conditions Fewer Conditions

10-Day Weather Forecast

Almanac

Astronomy

Apr. 27, 2015 Rise Set
Actual Time
Civil Twilight
Nautical Twilight
Astronomical Twilight
Moon
Length of Visible Light
Length of Day
Tomorrow will be .
, % of the Moon is Illuminated

Today's Extremes

State Highs State Lows

Community

WunderPhotos

Upload Photos

1,817,576 photos uploaded!

WunderBlogs® & News

Nearby

Air Quality

  Air Quality AQ Index Pollutant
Not available.

Snow Depth

Station Depth Elevation

Earthquake Activity

City Distance Mag. Time & Date
Minimum magnitude displayed is 2.5.

Coastal Water Temperatures

Place Temperature

Stations

Nearby Weather Stations

Station Location Temp. Windchill Dew Point Humidity Wind Precip. Elev Updated Type